LiveATC.Net - Listen to live air traffic control over the Internet! Contact for advertising information

ICAO: KBVY  IATA: BVY   Airport: Beverly Municipal Airport
City: Beverly   State/Province: Massachusetts
Country: United States   Continent: North America
KBVY METAR Weather: KBVY 271853Z 21012G20KT 10SM CLR 18/09 A3028 RMK AO2 SLP249 T01780089
KBVY Flight Activity (FlightAware)
KBVY Airport Info   (AirNav) (iFlightPlanner)
KBVY VFR Sectional Chart   (iFlightPlanner) 
KBVY IFR Low Chart   (iFlightPlanner) 
KBVY Ground/Tower
Feed Status: UP   Listeners: 2
Listen right in your browser - requires Flash (in browser, requires Flash)
Click here to listen with your own player (launches your MP3 player)
KBVY Ground/Tower Audio Archives
Beverly Ground121.600
Beverly Tower125.200
Beverly UNICOM122.950


Unauthorized use prohibited. See Terms of Service

Find LiveATC Audio Streams

Airport/ARTCC Code

(e.g., 124.400, 128.75)
Site-wide search

Browse LiveATC Feeds
LiveATC Coverage Map
Top 50 LiveATC Feeds
Bad Weather Areas

Offer a LiveATC Feed
Press Inquiries

LiveATC on iPhone
LiveATC on Android

Windows Phone
Windows 8/10

LiveATC Mobile
(Mobile browser)

ATC Audio Archives
Interesting Recordings

LiveATC Forums

Home Page
Make a Donation
LiveATC Bookstore

Terms of Use
Privacy Policy

ATC/Radar Sites
U.S. ARTCC Freqs
Canadian Air Freqs


FAA Airport Status
Nat'l Airspace Status
Arrival Demand Charts

Server Software By:

Please make a donation to help us keep growing!